FACTSAWH

Guest
Details From FACT - Cape Town International
To SAWH - Ushuaia_intl_islas Malvinas
Flight Number -
Tags Generated
Created
Modified
Stats Distance 3,673 nm / 6,802 km
Max Altitude 0 ft / 0 m
Waypoints 3
Social Downloads 1
Likes 0
Share VATSIM

Download

Looking for another format? Having issues loading an existing format? Contact us
Advertisement - Login to hide

Notes

Generated

Route

FACT USU93 SAWH

ID Type Via Altitude Latitude Longitude Leg Dist Tot Dist Heading (true) Name
O FACT APT - 0 ft / 0 m -33.96149˚ 18.59772˚ - 0 nm - -
USU93 FIX - 0 ft / 0 m -54.89357˚ -67.94544˚ 3659 nm 3659 nm 221° / 289° -
O SAWH APT - 0 ft / 0 m -54.84420˚ -68.31752˚ 13 nm 3672 nm 283° / 283° -

Altitude Profile

Advertisement - Login to hide

Weather


0- 5 10 15 20 25 30 35+ Temperature / ° C

Clouds and Precipitation
Forecast for 2018-05-24 18:00 UTC. Updated 5 hours ago

Ground ~20,000 ft ~40,000 ft Winds

FACT

Details ICAO FACT (CPT)
Name Cape Town International
Region South Africa
Timezone Africa/Johannesburg (UTC+2.0)
Stats Elevation 151 ft / 46 m (AMSL)
Location -33.970501° 18.604405°
Runways 2
Magnetic Variation 25.394° W

METAR

FACT 242200Z 18009KT 9999 BKN025 14/11 Q1022 NOSIG

Decode

TAF

TAF FACT 241350Z 2412/2518 16010KT 9999 FEW010 OVC025 FM250600 15007KT 9999 SCT040 TX19/2512Z TN11/2506Z

Decode

Departure Runways

ID Width Length Bearing (true) Bearing (mag) Surface Threshold Offset Overrun Length
01 200 ft / 61 m 10,527 ft / 3,209 m 345.27° 10.66° Asphalt 0 ft / 0 m 195 ft / 59 m
16 151 ft / 46 m 5,586 ft / 1,703 m 135.35° 160.74° Asphalt 300 ft / 91 m 0 ft / 0 m
19 200 ft / 61 m 10,527 ft / 3,209 m 165.27° 190.66° Asphalt 0 ft / 0 m 195 ft / 59 m
34 151 ft / 46 m 5,586 ft / 1,703 m 315.35° 340.74° Asphalt 300 ft / 91 m 0 ft / 0 m

SAWH

Details ICAO SAWH (USH)
Name Ushuaia_Intl_Islas Malvinas
Region Argentina
Timezone America/Argentina/Ushuaia (UTC-3.0)
Stats Elevation 91 ft / 28 m (AMSL)
Location -54.843310° -68.294897°
Runways 1
Magnetic Variation 12.376° E

METAR

SAWH 242200Z 36008KT 9999 SCT045 05/02 Q0987

Decode

TAF

TAF SAWH 241700Z 2418/2518 VRB05KT 9999 SCT030 BKN090 TX06/2418Z TN02/2507Z BECMG 2419/2421 25020KT BKN030 PROB40 TEMPO 2501/2505 25020G30KT -RA BKN020 BECMG 2506/2508 07010KT 5000 DZ OVC020

Decode

Destination Runways

ID Width Length Bearing (true) Bearing (mag) Surface Threshold Offset Overrun Length
07 148 ft / 45 m 9,531 ft / 2,905 m 86.11° 73.73° Concrete 591 ft / 180 m 295 ft / 90 m
25 148 ft / 45 m 9,531 ft / 2,905 m 266.08° 253.70° Concrete 899 ft / 274 m 98 ft / 30 m

Approach Navaids

Runway Type Ident Frequency Range Bearing (true) Bearing (mag) Slope Elevation
25 Localiser US 111.30 MHz 18 nm / 33 km 266.19° 253.81° - 54 ft / 16 m (AMSL)
25 Glidescope US 111.30 MHz 10 nm / 19 km 266.10° 253.72° 3.50° 91 ft / 28 m (AMSL)
25 DME US 111.30 MHz 18 nm / 33 km - - - 92 ft / 28 m (AMSL)

Popular Alternatives